createdAt,value
2017-11-10T00:00:13.042Z,17.33
2017-11-10T00:02:41.093Z,15.90
2017-11-10T00:05:08.729Z,18.17
2017-11-10T00:07:38.103Z,14.03
2017-11-10T00:10:05.538Z,18.63
2017-11-10T00:12:33.175Z,17.87
2017-11-10T00:15:00.817Z,20.67
2017-11-10T00:17:28.525Z,16.70
2017-11-10T00:19:56.152Z,16.93
2017-11-10T00:22:23.781Z,19.90
2017-11-10T00:24:51.461Z,20.93
2017-11-10T00:27:19.092Z,19.07
2017-11-10T00:29:47.547Z,19.27
2017-11-10T00:32:16.215Z,19.27
2017-11-10T00:34:43.840Z,19.30
2017-11-10T00:37:11.463Z,17.97
2017-11-10T00:39:39.157Z,20.17
2017-11-10T00:42:07.601Z,18.23
2017-11-10T00:44:36.197Z,17.00
2017-11-10T00:47:03.901Z,18.43
2017-11-10T00:49:32.478Z,18.37
2017-11-10T00:52:01.050Z,17.23
2017-11-10T00:57:09.826Z,19.20
2017-11-10T00:59:37.522Z,14.93
2017-11-10T01:02:05.430Z,18.80
2017-11-10T01:04:32.802Z,13.07
2017-11-10T01:07:00.511Z,14.33
2017-11-10T01:09:28.973Z,11.60
2017-11-10T01:11:56.617Z,12.20
2017-11-10T01:14:24.378Z,12.70
2017-11-10T01:16:52.954Z,10.43
2017-11-10T01:19:22.186Z,10.73
2017-11-10T01:21:50.722Z,7.23
2017-11-10T01:24:18.354Z,11.60
2017-11-10T01:26:46.830Z,10.87
2017-11-10T01:29:15.474Z,16.27
2017-11-10T01:31:44.059Z,9.07
2017-11-10T01:34:12.658Z,9.77
2017-11-10T01:36:41.323Z,14.27
2017-11-10T01:39:08.959Z,12.47
2017-11-10T01:41:37.058Z,14.23
2017-11-10T01:44:10.311Z,11.83
2017-11-10T01:46:38.843Z,14.23
2017-11-10T01:49:06.477Z,16.27
2017-11-10T01:51:34.186Z,17.63
2017-11-10T01:54:01.823Z,14.27
2017-11-10T01:56:29.458Z,14.00
2017-11-10T01:58:57.648Z,13.83
2017-11-10T02:01:25.287Z,15.70
2017-11-10T02:06:32.082Z,12.90
2017-11-10T02:09:00.685Z,12.60
2017-11-10T02:11:29.278Z,12.67
2017-11-10T02:13:57.913Z,10.73
2017-11-10T02:16:26.514Z,12.13
2017-11-10T02:18:55.009Z,11.53
2017-11-10T02:21:22.718Z,13.93
2017-11-10T02:23:50.355Z,16.70
2017-11-10T02:26:18.814Z,18.47
2017-11-10T02:28:47.462Z,15.37
2017-11-10T02:31:15.930Z,20.03
2017-11-10T02:33:47.342Z,13.30
2017-11-10T02:36:14.995Z,16.30
2017-11-10T02:38:42.631Z,13.43
2017-11-10T02:41:10.322Z,15.33
2017-11-10T02:43:37.955Z,14.73
2017-11-10T02:46:05.595Z,13.80
2017-11-10T02:48:34.124Z,15.80
2017-11-10T02:51:01.777Z,14.27
2017-11-10T02:53:29.400Z,13.37
2017-11-10T02:55:57.098Z,13.53
2017-11-10T02:58:25.674Z,12.07
2017-11-10T03:00:54.624Z,13.87
2017-11-10T03:03:24.169Z,13.40
2017-11-10T03:05:51.809Z,12.53
2017-11-10T03:08:19.451Z,11.67
2017-11-10T03:10:47.138Z,12.77
2017-11-10T03:13:14.765Z,11.93
2017-11-10T03:18:21.668Z,11.80
2017-11-10T03:20:49.317Z,10.77
2017-11-10T03:23:16.948Z,14.23
2017-11-10T03:25:44.646Z,17.17
2017-11-10T03:28:13.266Z,12.53
2017-11-10T03:30:40.886Z,12.10
2017-11-10T03:33:08.577Z,13.37
2017-11-10T03:35:36.213Z,13.40
2017-11-10T03:38:03.832Z,10.60
2017-11-10T03:40:31.504Z,10.77
2017-11-10T03:42:59.127Z,12.83
2017-11-10T03:45:26.754Z,12.13
2017-11-10T03:47:54.474Z,8.90
2017-11-10T03:50:22.079Z,11.67
2017-11-10T03:52:49.709Z,12.00
2017-11-10T03:55:17.382Z,12.73
2017-11-10T03:57:44.997Z,15.43
2017-11-10T04:00:13.128Z,10.73
2017-11-10T04:02:40.824Z,9.00
2017-11-10T04:05:08.445Z,7.50
2017-11-10T04:07:36.066Z,8.83
2017-11-10T04:10:03.744Z,7.77
2017-11-10T04:12:31.369Z,10.87
2017-11-10T04:14:58.989Z,7.13
2017-11-10T04:17:26.675Z,7.57
2017-11-10T04:19:54.293Z,9.60
2017-11-10T04:22:21.925Z,10.30
2017-11-10T04:24:49.636Z,9.23
2017-11-10T04:27:17.264Z,8.50
2017-11-10T04:29:44.887Z,8.17
2017-11-10T04:32:12.561Z,8.47
2017-11-10T04:34:40.187Z,7.80
2017-11-10T04:37:07.811Z,9.27
2017-11-10T04:39:35.518Z,10.70
2017-11-10T04:42:03.556Z,7.77
2017-11-10T04:47:11.343Z,10.20
2017-11-10T04:49:39.799Z,8.33
2017-11-10T04:52:07.527Z,8.17
2017-11-10T04:54:35.981Z,10.40
2017-11-10T04:57:03.611Z,9.30
2017-11-10T04:59:31.228Z,8.73
2017-11-10T05:01:59.726Z,8.50
2017-11-10T05:04:27.359Z,9.90
2017-11-10T05:06:54.973Z,9.13
2017-11-10T05:09:22.674Z,10.13
2017-11-10T05:11:50.304Z,8.27
2017-11-10T05:14:18.732Z,9.80
2017-11-10T05:16:46.422Z,10.67
2017-11-10T05:19:14.049Z,8.23
2017-11-10T05:21:41.668Z,8.50
2017-11-10T05:24:10.198Z,7.20
2017-11-10T05:26:37.822Z,8.30
2017-11-10T05:29:05.444Z,7.97
2017-11-10T05:31:33.119Z,16.40
2017-11-10T05:34:00.745Z,21.53
2017-11-10T05:36:28.365Z,15.50
2017-11-10T05:38:56.056Z,13.60
2017-11-10T05:41:23.690Z,11.67
2017-11-10T05:43:51.310Z,10.20
2017-11-10T05:46:18.986Z,11.37
2017-11-10T05:48:46.641Z,11.73
2017-11-10T05:51:14.243Z,9.50
2017-11-10T05:53:41.938Z,9.97
2017-11-10T05:56:09.560Z,9.20
2017-11-10T05:58:37.184Z,12.20
2017-11-10T06:03:47.554Z,14.30
2017-11-10T06:06:15.546Z,9.73
2017-11-10T06:08:43.164Z,14.97
2017-11-10T06:11:10.788Z,9.67
2017-11-10T06:13:39.293Z,9.40
2017-11-10T06:16:06.927Z,20.40
2017-11-10T06:18:34.538Z,10.60
2017-11-10T06:21:02.268Z,11.70
2017-11-10T06:23:29.854Z,10.80
2017-11-10T06:25:57.485Z,8.63
2017-11-10T06:28:25.167Z,9.50
2017-11-10T06:30:52.793Z,11.23
2017-11-10T06:33:20.435Z,10.00
2017-11-10T06:35:48.118Z,11.73
2017-11-10T06:38:15.763Z,9.90
2017-11-10T06:40:43.406Z,8.77
2017-11-10T06:43:11.099Z,8.83
2017-11-10T06:45:39.687Z,5.97
2017-11-10T06:48:07.309Z,6.13
2017-11-10T06:50:34.977Z,3.50
2017-11-10T06:53:02.610Z,6.73
2017-11-10T06:55:30.239Z,4.70
2017-11-10T06:57:57.907Z,5.53
2017-11-10T07:00:25.533Z,4.43
2017-11-10T07:02:53.145Z,3.13
2017-11-10T07:05:20.839Z,6.13
2017-11-10T07:07:48.445Z,6.43
2017-11-10T07:10:16.066Z,7.73
2017-11-10T07:12:43.774Z,10.97
2017-11-10T07:15:11.391Z,13.43
2017-11-10T07:17:39.024Z,10.50
2017-11-10T07:20:06.720Z,12.10
2017-11-10T07:22:37.464Z,12.40
2017-11-10T07:27:44.484Z,11.25
2017-11-10T07:30:12.121Z,13.80
2017-11-10T07:32:39.744Z,8.23
2017-11-10T07:35:07.419Z,5.60
2017-11-10T07:37:35.036Z,5.30
2017-11-10T07:40:02.660Z,5.83
2017-11-10T07:45:10.895Z,7.60
2017-11-10T07:47:39.423Z,7.03
2017-11-10T07:50:07.053Z,8.63
2017-11-10T07:52:34.693Z,8.43
2017-11-10T07:55:03.378Z,11.83
2017-11-10T07:57:31.025Z,7.57
2017-11-10T07:59:58.670Z,10.90
2017-11-10T08:02:28.727Z,10.23
2017-11-10T08:04:56.358Z,9.73
2017-11-10T08:07:24.837Z,8.00
2017-11-10T08:09:52.985Z,6.20
2017-11-10T08:12:20.627Z,8.23
2017-11-10T08:14:48.260Z,9.07
2017-11-10T08:17:15.965Z,7.70
2017-11-10T08:19:43.614Z,7.97
2017-11-10T08:22:11.804Z,7.00
2017-11-10T08:24:39.485Z,7.47
2017-11-10T08:27:07.123Z,11.50
2017-11-10T08:29:34.750Z,8.80
2017-11-10T08:32:02.843Z,9.90
2017-11-10T08:34:30.467Z,9.50
2017-11-10T08:36:58.092Z,7.50
2017-11-10T08:39:25.773Z,8.93
2017-11-10T08:41:53.414Z,9.43
2017-11-10T08:44:21.042Z,7.17
2017-11-10T08:46:48.746Z,8.67
2017-11-10T08:49:18.379Z,9.20
2017-11-10T08:51:46.002Z,8.43
2017-11-10T08:54:13.694Z,8.00
2017-11-10T08:56:41.322Z,11.17
2017-11-10T08:59:10.812Z,8.27
2017-11-10T09:01:36.840Z,10.60
2017-11-10T09:04:05.317Z,11.43
2017-11-10T09:06:33.762Z,8.70
2017-11-10T09:11:40.557Z,7.78
2017-11-10T09:14:08.234Z,9.97
2017-11-10T09:16:35.862Z,6.30
2017-11-10T09:19:03.485Z,6.37
2017-11-10T09:21:31.185Z,7.73
2017-11-10T09:23:58.819Z,9.40
2017-11-10T09:26:27.276Z,9.37
2017-11-10T09:29:01.102Z,10.83
2017-11-10T09:34:18.174Z,7.47
2017-11-10T09:36:51.635Z,7.13
2017-11-10T09:42:03.679Z,11.05
2017-11-10T09:44:33.345Z,13.70
2017-11-10T09:57:49.082Z,11.00
2017-11-10T10:00:23.070Z,7.90
2017-11-10T10:05:40.189Z,8.82
2017-11-10T10:24:18.440Z,8.43
2017-11-10T10:26:46.149Z,8.03
2017-11-10T10:29:13.779Z,7.97
2017-11-10T10:31:41.426Z,7.80
2017-11-10T10:34:09.113Z,9.03
2017-11-10T10:36:36.757Z,11.37
2017-11-10T10:39:04.400Z,9.93
2017-11-10T10:41:32.093Z,9.03
2017-11-10T10:43:59.722Z,8.07
2017-11-10T10:46:28.206Z,7.77
2017-11-10T10:48:55.906Z,10.33
2017-11-10T10:51:23.526Z,8.93
2017-11-10T10:53:51.160Z,7.73
2017-11-10T10:56:18.875Z,11.30
2017-11-10T10:58:46.515Z,6.93
2017-11-10T11:01:14.148Z,7.00
2017-11-10T11:03:41.842Z,7.50
2017-11-10T11:06:09.468Z,9.53
2017-11-10T11:08:37.095Z,7.37
2017-11-10T11:11:04.798Z,13.17
2017-11-10T11:13:32.753Z,7.83
2017-11-10T11:16:00.297Z,7.20
2017-11-10T11:18:28.005Z,7.63
2017-11-10T11:20:55.741Z,8.17
2017-11-10T11:23:23.324Z,7.87
2017-11-10T11:25:51.031Z,8.53
2017-11-10T11:28:18.888Z,10.43
2017-11-10T11:30:46.476Z,8.20
2017-11-10T11:33:14.165Z,7.97
2017-11-10T11:35:41.782Z,7.87
2017-11-10T11:38:09.405Z,10.27
2017-11-10T11:40:37.093Z,10.37
2017-11-10T11:43:04.869Z,7.60
2017-11-10T11:45:32.340Z,8.80
2017-11-10T11:50:39.154Z,8.45
2017-11-10T11:53:06.844Z,9.87
2017-11-10T11:55:34.470Z,7.67
2017-11-10T11:58:02.099Z,8.43
2017-11-10T12:00:29.784Z,11.33
2017-11-10T12:02:57.660Z,9.40
2017-11-10T12:05:25.279Z,8.23
2017-11-10T12:07:52.973Z,5.73
2017-11-10T12:10:20.602Z,6.57
2017-11-10T12:12:48.248Z,7.13
2017-11-10T12:15:16.873Z,7.97
2017-11-10T12:17:44.493Z,7.07
2017-11-10T12:20:12.983Z,10.73
2017-11-10T12:22:41.545Z,10.03
2017-11-10T12:25:09.205Z,8.13
2017-11-10T12:27:36.794Z,7.43
2017-11-10T12:30:04.478Z,9.40
2017-11-10T12:32:32.103Z,7.97
2017-11-10T12:34:59.727Z,7.40
2017-11-10T12:37:28.268Z,6.27
2017-11-10T12:39:55.892Z,6.00
2017-11-10T12:42:23.502Z,5.93
2017-11-10T12:44:51.182Z,6.50
2017-11-10T12:47:19.618Z,5.67
2017-11-10T12:49:47.254Z,3.80
2017-11-10T12:52:14.960Z,4.57
2017-11-10T12:57:21.760Z,7.53
2017-11-10T12:59:50.328Z,6.13
2017-11-10T13:02:17.957Z,8.03
2017-11-10T13:04:45.670Z,12.10
2017-11-10T13:07:14.023Z,7.17
2017-11-10T13:09:41.650Z,8.57
2017-11-10T13:12:09.351Z,9.70
2017-11-10T13:14:36.993Z,6.23
2017-11-10T13:17:04.622Z,7.20
2017-11-10T13:19:33.278Z,6.10
2017-11-10T13:22:01.859Z,12.80
2017-11-10T13:24:29.510Z,13.53
2017-11-10T13:26:57.220Z,17.73
2017-11-10T13:29:24.847Z,8.57
2017-11-10T13:31:52.475Z,8.70
2017-11-10T13:34:20.162Z,4.07
2017-11-10T13:36:47.792Z,8.47
2017-11-10T13:39:16.387Z,6.17
2017-11-10T13:41:45.054Z,6.93
2017-11-10T13:44:13.533Z,8.40
2017-11-10T13:46:42.159Z,10.10
2017-11-10T13:49:09.853Z,5.80
2017-11-10T13:51:37.481Z,7.23
2017-11-10T13:54:05.931Z,6.33
2017-11-10T13:56:33.636Z,6.43
2017-11-10T13:59:01.273Z,5.03
2017-11-10T14:01:28.906Z,7.13
2017-11-10T14:03:56.608Z,5.83
2017-11-10T14:06:24.247Z,10.83
2017-11-10T14:08:51.882Z,6.63
2017-11-10T14:11:19.570Z,7.90
2017-11-10T14:13:47.203Z,8.90
2017-11-10T14:16:14.849Z,8.87
2017-11-10T14:18:42.523Z,13.30
2017-11-10T14:21:10.167Z,18.03
2017-11-10T14:26:17.822Z,5.12
2017-11-10T14:28:45.442Z,5.83
2017-11-10T14:31:14.010Z,5.93
2017-11-10T14:33:41.717Z,8.73
2017-11-10T14:36:09.338Z,7.27
2017-11-10T14:38:36.966Z,7.73
2017-11-10T14:41:04.726Z,8.77
2017-11-10T14:43:32.306Z,8.27
2017-11-10T14:45:59.937Z,6.53
2017-11-10T14:48:27.620Z,6.17
2017-11-10T14:50:55.241Z,6.90
2017-11-10T14:53:22.864Z,6.63
2017-11-10T14:55:51.537Z,5.00
2017-11-10T14:58:19.689Z,4.80
2017-11-10T15:00:47.246Z,5.70
2017-11-10T15:03:14.960Z,5.97
2017-11-10T15:05:42.833Z,4.60
2017-11-10T15:08:10.487Z,3.77
2017-11-10T15:10:38.199Z,4.00
2017-11-10T15:13:06.172Z,8.57
2017-11-10T15:15:33.802Z,4.77
2017-11-10T15:20:33.204Z,4.73
2017-11-10T15:23:01.341Z,5.87
2017-11-10T15:25:29.052Z,8.83
2017-11-10T15:27:56.679Z,4.80
2017-11-10T15:30:25.290Z,7.63
2017-11-10T15:32:53.007Z,8.90
2017-11-10T15:35:22.440Z,8.20
2017-11-10T15:40:32.583Z,7.15
2017-11-10T15:43:00.215Z,6.77
2017-11-10T15:45:27.853Z,5.57
2017-11-10T15:47:55.552Z,5.63
2017-11-10T15:50:23.170Z,8.50
2017-11-10T15:52:50.797Z,7.73
2017-11-10T15:55:18.505Z,6.07
2017-11-10T15:57:47.430Z,6.87
2017-11-10T16:00:15.070Z,9.77
2017-11-10T16:02:43.221Z,18.00
2017-11-10T16:05:10.812Z,20.90
2017-11-10T16:07:38.961Z,9.47
2017-11-10T16:10:06.642Z,6.50
2017-11-10T16:12:34.258Z,6.27
2017-11-10T16:15:01.891Z,10.83
2017-11-10T16:17:29.608Z,7.17
2017-11-10T16:19:57.229Z,6.27
2017-11-10T16:22:24.849Z,6.20
2017-11-10T16:24:52.551Z,7.20
2017-11-10T16:27:20.169Z,6.07
2017-11-10T16:29:47.792Z,8.37
2017-11-10T16:32:15.482Z,6.57
2017-11-10T16:34:43.117Z,9.93
2017-11-10T16:37:10.763Z,9.17
2017-11-10T16:39:38.452Z,11.43
2017-11-10T16:42:06.061Z,9.93
2017-11-10T16:44:33.696Z,7.83
2017-11-10T16:47:02.362Z,5.53
2017-11-10T16:49:29.980Z,7.03
2017-11-10T16:51:57.616Z,6.03
2017-11-10T16:54:26.117Z,7.70
2017-11-10T16:56:53.744Z,8.57
2017-11-10T16:59:21.371Z,11.43
2017-11-10T17:01:49.902Z,8.53
2017-11-10T17:06:57.461Z,7.12
2017-11-10T17:09:25.085Z,9.00
2017-11-10T17:11:52.791Z,6.77
2017-11-10T17:14:20.605Z,8.40
2017-11-10T17:16:48.241Z,6.93
2017-11-10T17:19:15.878Z,6.57
2017-11-10T17:21:43.575Z,10.60
2017-11-10T17:24:11.203Z,10.77
2017-11-10T17:26:38.829Z,8.30
2017-11-10T17:29:06.522Z,6.73
2017-11-10T17:31:34.149Z,5.63
2017-11-10T17:34:01.781Z,5.73
2017-11-10T17:36:29.473Z,5.67
2017-11-10T17:38:58.041Z,6.37
2017-11-10T17:41:25.683Z,5.73
2017-11-10T17:43:53.374Z,5.67
2017-11-10T17:46:21.009Z,6.40
2017-11-10T17:48:48.680Z,7.80
2017-11-10T17:51:16.404Z,5.97
2017-11-10T17:53:44.382Z,7.17
2017-11-10T17:56:12.017Z,4.23
2017-11-10T17:58:39.726Z,5.27
2017-11-10T18:01:07.349Z,7.90
2017-11-10T18:03:34.997Z,5.83
2017-11-10T18:06:02.714Z,5.73
2017-11-10T18:08:30.339Z,6.03
2017-11-10T18:10:58.104Z,6.73
2017-11-10T18:13:26.734Z,6.93
2017-11-10T18:15:54.349Z,9.03
2017-11-10T18:18:22.406Z,11.87
2017-11-10T18:20:50.126Z,7.40
2017-11-10T18:25:58.142Z,7.40
2017-11-10T18:28:25.798Z,7.63
2017-11-10T18:30:54.370Z,7.53
2017-11-10T18:33:22.049Z,7.00
2017-11-10T18:35:49.661Z,9.67
2017-11-10T18:38:17.300Z,6.83
2017-11-10T18:40:45.005Z,10.13
2017-11-10T18:43:12.615Z,12.47
2017-11-10T18:45:40.241Z,19.30
2017-11-10T18:48:07.951Z,12.70
2017-11-10T18:50:35.582Z,18.27
2017-11-10T18:53:05.234Z,19.53
2017-11-10T18:58:13.300Z,15.35
2017-11-10T19:00:41.008Z,13.13
2017-11-10T19:03:08.629Z,14.83
2017-11-10T19:05:43.717Z,11.53
2017-11-10T19:08:11.422Z,10.63
2017-11-10T19:10:39.050Z,10.63
2017-11-10T19:13:06.683Z,9.07
2017-11-10T19:15:34.393Z,11.03
2017-11-10T19:18:02.031Z,12.57
2017-11-10T19:20:29.707Z,7.67
2017-11-10T19:22:57.323Z,8.53
2017-11-10T19:25:24.951Z,15.57
2017-11-10T19:27:52.599Z,7.10
2017-11-10T19:30:20.565Z,9.33
2017-11-10T19:32:48.218Z,7.97
2017-11-10T19:35:15.759Z,10.53
2017-11-10T19:37:43.501Z,9.57
2017-11-10T19:40:11.130Z,6.63
2017-11-10T19:42:38.760Z,6.83
2017-11-10T19:45:06.647Z,5.50
2017-11-10T19:47:34.243Z,9.93
2017-11-10T19:50:01.881Z,8.53
2017-11-10T19:52:29.570Z,13.30
2017-11-10T19:54:57.186Z,5.80
2017-11-10T19:57:24.829Z,5.23
2017-11-10T19:59:52.521Z,9.07
2017-11-10T20:02:20.985Z,9.37
2017-11-10T20:04:48.611Z,8.43
2017-11-10T20:07:16.300Z,7.63
2017-11-10T20:09:43.914Z,6.83
2017-11-10T20:12:11.635Z,9.33
2017-11-10T20:14:39.325Z,6.57
2017-11-10T20:17:07.029Z,9.73
2017-11-10T20:22:13.792Z,7.80
2017-11-10T20:24:41.460Z,9.63
2017-11-10T20:27:09.084Z,8.60
2017-11-10T20:29:36.812Z,10.33
2017-11-10T20:32:04.451Z,7.37
2017-11-10T20:34:32.961Z,9.87
2017-11-10T20:37:00.642Z,9.87
2017-11-10T20:39:28.257Z,8.50
2017-11-10T20:41:55.881Z,10.30
2017-11-10T20:44:23.571Z,19.53
2017-11-10T20:46:51.675Z,15.67
2017-11-10T20:49:19.468Z,29.73
2017-11-10T20:51:47.460Z,19.97
2017-11-10T20:54:15.299Z,20.93
2017-11-10T20:56:43.319Z,15.87
2017-11-10T20:59:11.191Z,11.90
2017-11-10T21:01:39.147Z,11.73
2017-11-10T21:04:06.699Z,8.97
2017-11-10T21:06:35.380Z,9.20
2017-11-10T21:09:03.039Z,11.23
2017-11-10T21:11:30.684Z,10.40
2017-11-10T21:13:58.377Z,11.07
2017-11-10T21:16:26.013Z,19.50
2017-11-10T21:18:53.644Z,15.60
2017-11-10T21:21:21.357Z,18.43
2017-11-10T21:23:48.981Z,11.53
2017-11-10T21:26:16.628Z,12.33
2017-11-10T21:28:44.777Z,19.07
2017-11-10T21:31:12.585Z,28.73
2017-11-10T21:33:40.245Z,11.27
2017-11-10T21:36:07.915Z,16.47
2017-11-10T21:41:18.443Z,20.25
2017-11-10T21:43:46.408Z,16.93
2017-11-10T21:46:14.247Z,12.43
2017-11-10T21:48:42.832Z,11.50
2017-11-10T21:51:10.465Z,12.57
2017-11-10T21:53:38.093Z,12.53
2017-11-10T21:56:06.261Z,14.73
2017-11-10T21:58:33.885Z,14.73
2017-11-10T22:01:01.510Z,13.17
2017-11-10T22:03:29.218Z,14.07
2017-11-10T22:05:56.870Z,12.60
2017-11-10T22:08:24.508Z,19.77
2017-11-10T22:10:52.194Z,20.43
2017-11-10T22:13:19.827Z,15.57
2017-11-10T22:15:47.464Z,10.90
2017-11-10T22:18:15.183Z,8.97
2017-11-10T22:20:42.807Z,7.63
2017-11-10T22:23:10.451Z,8.13
2017-11-10T22:25:38.158Z,13.83
2017-11-10T22:28:05.798Z,11.43
2017-11-10T22:30:33.434Z,10.30
2017-11-10T22:33:01.152Z,15.00
2017-11-10T22:35:28.779Z,13.80
2017-11-10T22:37:57.095Z,15.03
2017-11-10T22:40:24.802Z,12.30
2017-11-10T22:42:52.450Z,9.93
2017-11-10T22:45:20.088Z,10.23
2017-11-10T22:47:47.765Z,8.00
2017-11-10T22:50:15.395Z,9.03
2017-11-10T22:52:43.037Z,12.50
2017-11-10T22:55:10.734Z,10.00
2017-11-10T22:57:38.440Z,7.83
2017-11-10T23:00:06.767Z,8.43
2017-11-10T23:02:34.455Z,9.30
2017-11-10T23:07:41.298Z,10.25
2017-11-10T23:10:08.929Z,11.87
2017-11-10T23:12:36.548Z,12.37
2017-11-10T23:15:04.304Z,11.43
2017-11-10T23:17:31.953Z,9.00
2017-11-10T23:19:59.623Z,11.20
2017-11-10T23:22:27.313Z,10.90
2017-11-10T23:24:54.943Z,9.87
2017-11-10T23:27:23.406Z,11.70
2017-11-10T23:29:51.106Z,15.30
2017-11-10T23:32:18.750Z,11.60
2017-11-10T23:34:46.396Z,14.07
2017-11-10T23:37:14.095Z,11.43
2017-11-10T23:39:41.731Z,10.47
2017-11-10T23:42:09.364Z,8.90
2017-11-10T23:44:37.541Z,9.17
2017-11-10T23:47:05.177Z,12.17
2017-11-10T23:49:32.820Z,12.30
2017-11-10T23:52:00.606Z,10.77
2017-11-10T23:54:28.250Z,9.20
2017-11-10T23:56:56.837Z,12.20
2017-11-10T23:59:25.457Z,11.67
